nws-alerts: Checking more than four warning/county codes can delay the loading of your pages. You should use a cron job to get the data.

Nearby METAR Reports

 

KOXC - Oxford/Waterbury, Connecticut, USA
Distance from station: NW 7mi, 11km
Updated: 07/15/2024 1:56am
Clear
Clear
 Wind from calm
Wind: Calm
Temperature: 72°F, 22°C
Dew Point: 70°F, 21°C
Humidity: 94%
Barometer: 29.96 inHg, 1014.6 hPa
Clouds: Clear
Visibility: 10 miles, 16 km
2024/07/15 05:56 KOXC 150556Z AUTO 00000KT 10SM CLR 22/21 A2996 RMK AO2 SLP148 6//// T02170206 10261 20217 58007 PNO $
KHVN - New Haven/Tweed, Connecticut, USA
Distance from station: SE 13mi, 20km
Updated: 07/15/2024 1:53am
Mist, Clear
Mist, Clear
 Wind from SSW
Wind: SSW 5 mph, 7 km/h
Temperature: 75°F, 24°C
Dew Point: 73°F, 23°C
Humidity: 94%
Barometer: 29.92 inHg, 1013.2 hPa
Summary: Mist
Clouds: Clear
Visibility: 5 miles, 8 km
2024/07/15 05:53 KHVN 150553Z AUTO 20004KT 5SM BR CLR 24/23 A2992 RMK AO2 SLP132 T02440228 10278 20244 58008
 
KMMK - Meriden, Connecticut, USA
Distance from station: NE 13mi, 21km
Updated: 07/15/2024 1:53am
Clear
Clear
 Wind from calm
Wind: Calm
Temperature: 72°F, 22°C
Dew Point: 66°F, 19°C
Humidity: 83%
Barometer: 29.92 inHg, 1013.2 hPa
Clouds: Clear
Visibility: 10 miles, 16 km
2024/07/15 05:53 KMMK 150553Z AUTO 00000KT 10SM CLR 22/19 A2992 RMK AO2 SLP129 T02170189 10278 20211 58008
KBDR - Bridgeport, Connecticut, USA
Distance from station: SSW 17mi, 27km
Updated: 07/15/2024 1:52am
Clear
Clear
 Wind from WSW
Wind: WSW 3 mph, 6 km/h
Temperature: 75°F, 24°C
Dew Point: 72°F, 22°C
Humidity: 89%
Barometer: 29.92 inHg, 1013.2 hPa
Clouds: Clear
Visibility: 10 miles, 16 km
2024/07/15 05:52 KBDR 150552Z AUTO 24003KT 10SM CLR 24/22 A2992 RMK AO2 SLP132 T02440222 10272 20244 58007
 
KDXR - Danbury, Connecticut, USA
Distance from station: W 23mi, 38km
Updated: 07/15/2024 1:53am
Clear
Clear
 Wind from calm
Wind: Calm
Temperature: 75°F, 24°C
Dew Point: 70°F, 21°C
Humidity: 83%
Barometer: 29.94 inHg, 1013.9 hPa
Clouds: Clear
Visibility: 10 miles, 16 km
2024/07/15 05:53 KDXR 150553Z AUTO 00000KT 10SM CLR 24/21 A2994 RMK AO2 SLP132 T02390206 10278 20233 58007 $